Time;durP1;ratioP1;P1;durP2;ratioP2;P2;SDS_P1;SDS_P2;PMS_P1;PMS_P2;Temp;Humidity;BMP_temperature;BMP_pressure;BME280_temperature;BME280_humidity;BME280_pressure;Samples;Min_cycle;Max_cycle;Signal;HPM_P1;HPM_P2
2022/08/04 00:01:27;;;;;;;2.88;2.35;;;;;;;20.40;100.00;100512.34;5169652;28;20034;-76
2022/08/04 00:04:01;;;;;;;3.03;2.40;;;;;;;20.50;99.34;100508.00;5173726;28;20105;-76
2022/08/04 00:07:05;;;;;;;5.47;2.50;;;;;;;20.45;99.44;100504.03;5171448;28;20025;-74
2022/08/04 00:09:51;;;;;;;5.30;2.55;;;;;;;20.44;98.38;100511.13;5168688;28;20026;-76
2022/08/04 00:12:24;;;;;;;3.28;2.50;;;;;;;20.54;97.89;100516.59;5170566;28;20052;-76
2022/08/04 00:14:57;;;;;;;3.85;2.35;;;;;;;20.43;98.20;100516.59;5170946;28;20088;-76
2022/08/04 00:17:32;;;;;;;10.50;2.42;;;;;;;20.48;98.91;100509.94;5167249;28;20096;-76
2022/08/04 00:20:05;;;;;;;4.82;1.88;;;;;;;20.33;99.34;100505.78;5171956;28;20072;-76
2022/08/04 00:22:38;;;;;;;5.75;2.40;;;;;;;20.16;100.00;100506.22;5168530;28;20594;-76
2022/08/04 00:25:09;;;;;;;5.03;2.70;;;;;;;19.85;100.00;100503.31;5167254;28;20099;-76
2022/08/04 00:27:39;;;;;;;4.07;2.40;;;;;;;20.15;99.98;100509.84;5176167;28;20061;-76
2022/08/04 00:30:10;;;;;;;4.47;2.60;;;;;;;19.69;100.00;100500.97;5170839;28;20117;-76
2022/08/04 00:32:40;;;;;;;6.88;2.58;;;;;;;19.57;100.00;100507.16;5171893;28;20026;-76
2022/08/04 00:35:14;;;;;;;5.05;2.47;;;;;;;19.54;100.00;100504.75;5176879;28;20121;-74
2022/08/04 00:37:45;;;;;;;6.72;2.28;;;;;;;19.44;100.00;100501.06;5171973;28;20440;-76
2022/08/04 00:40:31;;;;;;;5.90;2.70;;;;;;;19.30;100.00;100511.00;5170669;28;20032;-76
2022/08/04 00:43:18;;;;;;;5.88;2.78;;;;;;;19.38;100.00;100496.22;5165125;28;20080;-76
2022/08/04 00:46:15;;;;;;;8.02;2.72;;;;;;;19.35;100.00;100491.16;5175296;28;20530;-76
2022/08/04 00:49:40;;;;;;;3.50;2.58;;;;;;;19.38;100.00;100498.88;5173501;28;20042;-76
2022/08/04 00:52:35;;;;;;;4.15;2.33;;;;;;;19.59;100.00;100496.47;5168255;28;20025;-76
2022/08/04 00:55:23;;;;;;;4.93;2.40;;;;;;;19.64;100.00;100495.16;5171902;28;20075;-76
2022/08/04 00:58:18;;;;;;;4.72;2.38;;;;;;;19.59;100.00;100497.28;5176849;28;20030;-76
2022/08/04 01:01:00;;;;;;;4.38;2.83;;;;;;;19.70;100.00;100497.38;5171109;28;20100;-76
2022/08/04 01:03:52;;;;;;;4.10;2.50;;;;;;;19.79;100.00;100501.13;5170445;28;20037;-76
2022/08/04 01:07:09;;;;;;;5.75;2.80;;;;;;;19.74;100.00;100505.91;5175514;28;20026;-76
2022/08/04 01:10:06;;;;;;;5.63;2.50;;;;;;;19.66;100.00;100503.84;5176066;28;20425;-76
2022/08/04 01:12:59;;;;;;;6.25;2.72;;;;;;;19.70;100.00;100505.31;5167915;28;20042;-76
2022/08/04 01:15:38;;;;;;;4.13;2.10;;;;;;;19.77;100.00;100498.59;5168266;28;20030;-76
2022/08/04 01:18:36;;;;;;;5.15;2.35;;;;;;;20.05;100.00;100492.94;5173181;28;20121;-76
2022/08/04 01:21:30;;;;;;;5.43;2.25;;;;;;;20.02;100.00;100500.28;5173793;28;20129;-76
2022/08/04 01:24:38;;;;;;;5.72;2.47;;;;;;;19.40;100.00;100502.25;5157845;28;20494;-76
2022/08/04 01:27:22;;;;;;;3.85;2.53;;;;;;;19.66;100.00;100498.56;5166934;28;20415;-76
2022/08/04 01:29:57;;;;;;;3.50;2.20;;;;;;;19.59;100.00;100497.28;5169180;28;20032;-76
2022/08/04 01:32:33;;;;;;;4.68;2.63;;;;;;;19.46;100.00;100495.66;5170519;28;20113;-76
2022/08/04 01:35:12;;;;;;;6.05;2.40;;;;;;;19.37;100.00;100491.88;5177027;28;20030;-76
2022/08/04 01:37:58;;;;;;;5.07;2.60;;;;;;;19.17;100.00;100492.47;5169378;28;20033;-76
2022/08/04 01:40:28;;;;;;;6.28;2.67;;;;;;;18.90;100.00;100486.47;5168324;28;20035;-75
2022/08/04 01:43:02;;;;;;;8.30;2.78;;;;;;;18.78;100.00;100495.25;5171034;28;20022;-74
2022/08/04 01:45:35;;;;;;;5.90;2.90;;;;;;;18.66;100.00;100482.03;5168591;28;20066;-75
2022/08/04 01:48:07;;;;;;;4.43;2.90;;;;;;;18.79;100.00;100489.00;5180578;28;20400;-76
2022/08/04 01:50:38;;;;;;;6.07;3.13;;;;;;;18.77;100.00;100482.97;5177915;28;20036;-76
2022/08/04 01:53:09;;;;;;;4.10;2.70;;;;;;;18.64;100.00;100493.69;5171602;28;20041;-76
2022/08/04 01:55:40;;;;;;;10.52;3.17;;;;;;;18.60;100.00;100481.63;5174576;28;20874;-76
2022/08/04 01:58:11;;;;;;;8.13;3.10;;;;;;;18.69;100.00;100481.00;5169906;28;20042;-75
2022/08/04 02:00:54;;;;;;;3.92;2.88;;;;;;;18.75;100.00;100476.94;5174348;28;20094;-76
2022/08/04 02:03:24;;;;;;;8.82;3.25;;;;;;;18.66;100.00;100482.03;5178670;28;20487;-76
2022/08/04 02:06:17;;;;;;;6.05;3.35;;;;;;;18.74;100.00;100485.03;5179408;28;20038;-75
2022/08/04 02:09:08;;;;;;;4.88;2.50;;;;;;;18.85;100.00;100478.00;5172015;28;20544;-76
2022/08/04 02:11:45;;;;;;;4.10;2.70;;;;;;;18.86;100.00;100478.84;5170959;28;20495;-76
2022/08/04 02:14:42;;;;;;;4.45;2.80;;;;;;;19.05;100.00;100477.44;5173325;28;20037;-76
2022/08/04 02:17:28;;;;;;;4.43;2.70;;;;;;;18.97;100.00;100477.09;5176480;28;20057;-76
2022/08/04 02:20:18;;;;;;;5.97;3.00;;;;;;;18.78;100.00;100482.03;5174061;28;20034;-76
2022/08/04 02:22:59;;;;;;;6.22;2.60;;;;;;;18.71;100.00;100474.63;5172713;28;20396;-76
2022/08/04 02:25:37;;;;;;;5.63;2.88;;;;;;;18.62;100.00;100469.13;5171509;28;20046;-76
2022/08/04 02:28:07;;;;;;;5.20;3.13;;;;;;;18.68;100.00;100472.19;5170761;28;20049;-74
2022/08/04 02:31:03;;;;;;;3.93;2.83;;;;;;;18.90;100.00;100469.75;5200632;23;20041;-74
2022/08/04 02:34:15;;;;;;;8.60;2.60;;;;;;;18.84;100.00;100468.38;5205586;28;20770;-74
2022/08/04 02:36:47;;;;;;;4.15;2.70;;;;;;;18.62;100.00;100461.19;5199867;28;20068;-74
2022/08/04 02:39:22;;;;;;;6.95;3.35;;;;;;;18.39;100.00;100470.75;5202913;28;20033;-74
2022/08/04 02:41:55;;;;;;;4.85;2.88;;;;;;;18.31;100.00;100474.88;5203039;28;20025;-74
2022/08/04 02:44:27;;;;;;;4.68;3.10;;;;;;;18.48;100.00;100461.31;5201781;28;21621;-74
2022/08/04 02:47:00;;;;;;;5.55;3.05;;;;;;;18.44;100.00;100470.41;5201978;28;20025;-74
2022/08/04 02:49:35;;;;;;;6.57;3.50;;;;;;;18.32;100.00;100460.69;5202298;28;20436;-74
2022/08/04 02:52:09;;;;;;;6.40;2.75;;;;;;;18.50;100.00;100457.59;5198674;28;20437;-73
2022/08/04 02:54:44;;;;;;;7.35;2.97;;;;;;;18.48;100.00;100456.03;5201160;28;20025;-74
2022/08/04 02:57:17;;;;;;;5.38;3.22;;;;;;;18.21;100.00;100457.88;5201235;28;20112;-74
2022/08/04 02:59:53;;;;;;;4.45;2.50;;;;;;;18.43;100.00;100461.63;5202104;28;20568;-74
2022/08/04 03:02:43;;;;;;;6.10;3.17;;;;;;;18.56;100.00;100453.69;5201663;28;20507;-74
2022/08/04 03:05:20;;;;;;;3.67;2.67;;;;;;;18.37;100.00;100458.56;5199176;28;20391;-74
2022/08/04 03:08:28;;;;;;;8.82;3.00;;;;;;;18.54;100.00;100458.22;5200223;28;20499;-74
2022/08/04 03:11:02;;;;;;;4.43;2.50;;;;;;;18.59;100.00;100453.47;5203390;28;20037;-73
2022/08/04 03:13:56;;;;;;;3.20;2.80;;;;;;;18.79;100.00;100454.59;5202323;28;20395;-72
2022/08/04 03:16:52;;;;;;;6.65;2.88;;;;;;;18.66;100.00;100460.03;5199707;28;20030;-73
2022/08/04 03:19:32;;;;;;;7.60;2.90;;;;;;;18.42;100.00;100465.22;5198974;28;20383;-73
2022/08/04 03:22:20;;;;;;;4.05;2.72;;;;;;;18.51;100.00;100464.56;5200880;28;20038;-74
2022/08/04 03:25:14;;;;;;;4.28;2.78;;;;;;;18.25;100.00;100465.50;5200230;28;20035;-72
2022/08/04 03:28:08;;;;;;;6.05;3.05;;;;;;;18.20;100.00;100469.41;5199125;28;20032;-74
2022/08/04 03:31:09;;;;;;;7.85;3.00;;;;;;;18.48;100.00;100462.16;5198258;28;20104;-74
2022/08/04 03:33:39;;;;;;;4.32;2.80;;;;;;;18.33;100.00;100457.09;5198232;28;20017;-74
2022/08/04 03:36:22;;;;;;;6.00;3.10;;;;;;;18.10;100.00;100458.63;5199871;28;20090;-74
2022/08/04 03:39:11;;;;;;;5.53;2.80;;;;;;;17.83;100.00;100457.00;5201950;28;20400;-74
2022/08/04 03:42:00;;;;;;;5.13;2.88;;;;;;;17.75;100.00;100459.28;5198879;28;20037;-74
2022/08/04 03:44:48;;;;;;;8.45;3.38;;;;;;;17.80;100.00;100462.50;5201982;28;20026;-75
2022/08/04 03:47:36;;;;;;;13.05;3.20;;;;;;;17.81;100.00;100448.31;5199389;28;20411;-74
2022/08/04 03:50:37;;;;;;;5.10;3.10;;;;;;;17.92;100.00;100456.38;5197426;28;20402;-74
2022/08/04 03:53:39;;;;;;;4.18;2.85;;;;;;;18.01;100.00;100446.00;5197629;28;20029;-74
2022/08/04 03:56:31;;;;;;;5.88;3.13;;;;;;;17.87;100.00;100454.06;5197917;28;20048;-75
2022/08/04 03:59:11;;;;;;;4.43;3.13;;;;;;;17.73;100.00;100447.97;5201677;28;20021;-75
2022/08/04 04:01:54;;;;;;;4.93;2.95;;;;;;;17.97;100.00;100447.16;5198230;28;20431;-75
2022/08/04 04:04:24;;;;;;;6.32;2.85;;;;;;;18.23;100.00;100453.34;5201598;28;20100;-75
2022/08/04 04:07:22;;;;;;;6.67;3.10;;;;;;;18.03;100.00;100453.84;5201160;28;20124;-75
2022/08/04 04:10:11;;;;;;;4.07;3.15;;;;;;;17.95;100.00;100457.00;5198072;28;20279;-75
2022/08/04 04:13:03;;;;;;;4.82;3.10;;;;;;;17.94;100.00;100455.31;5197889;28;20029;-75
2022/08/04 04:15:47;;;;;;;10.90;3.13;;;;;;;18.04;100.00;100456.38;5201431;28;20051;-74
2022/08/04 04:18:36;;;;;;;5.57;3.20;;;;;;;18.03;100.00;100459.16;5197886;28;20075;-74
2022/08/04 04:21:27;;;;;;;5.78;3.15;;;;;;;18.13;100.00;100457.53;5196823;28;20061;-75
2022/08/04 04:24:35;;;;;;;4.15;3.10;;;;;;;18.34;100.00;100461.44;5200765;28;20032;-75
2022/08/04 04:27:08;;;;;;;4.70;2.95;;;;;;;18.28;100.00;100453.88;5205344;28;20025;-75
2022/08/04 04:29:41;;;;;;;5.75;3.40;;;;;;;18.39;100.00;100461.94;5201053;28;20064;-75
2022/08/04 04:32:33;;;;;;;3.95;3.13;;;;;;;18.32;100.00;100455.41;5200724;28;20048;-75
2022/08/04 04:35:21;;;;;;;5.30;3.40;;;;;;;18.21;100.00;100457.88;5203635;28;20026;-74
2022/08/04 04:38:04;;;;;;;6.65;3.40;;;;;;;18.04;100.00;100460.84;5200708;28;20112;-75
2022/08/04 04:40:38;;;;;;;5.75;2.90;;;;;;;18.19;100.00;100459.78;5200331;28;20607;-75
2022/08/04 04:43:45;;;;;;;5.15;3.08;;;;;;;18.24;100.00;100462.97;5196447;28;20072;-75
2022/08/04 04:46:42;;;;;;;5.70;3.00;;;;;;;18.59;100.00;100461.41;5197266;28;20059;-75
2022/08/04 04:49:39;;;;;;;14.77;3.58;;;;;;;19.47;99.00;100465.53;5196896;28;20021;-76
2022/08/04 04:52:27;;;;;;;4.50;2.50;;;;;;;21.64;88.67;100456.22;5195871;28;20033;-75
2022/08/04 04:55:12;;;;;;;4.03;2.40;;;;;;;23.39;79.04;100446.94;5201078;28;20029;-75
2022/08/04 04:57:45;;;;;;;3.70;2.28;;;;;;;24.75;74.04;100443.84;5197454;28;20029;-76
2022/08/04 05:00:17;;;;;;;6.65;2.40;;;;;;;25.66;68.75;100444.59;5200374;28;20395;-76
2022/08/04 05:03:11;;;;;;;3.22;1.77;;;;;;;26.40;69.23;100445.88;5201549;28;20449;-76
2022/08/04 05:06:15;;;;;;;4.15;2.15;;;;;;;26.55;70.21;100457.75;5196115;28;20025;-76
2022/08/04 05:09:07;;;;;;;3.65;1.80;;;;;;;28.08;65.36;100453.53;5197524;28;20029;-74
2022/08/04 05:11:47;;;;;;;4.40;2.10;;;;;;;28.56;64.52;100452.66;5196500;28;20033;-75
2022/08/04 05:14:26;;;;;;;4.57;1.90;;;;;;;29.94;60.36;100446.25;5199383;28;20057;-75
2022/08/04 05:17:14;;;;;;;3.22;2.00;;;;;;;28.37;64.85;100455.72;5199756;28;20068;-75
2022/08/04 05:20:02;;;;;;;4.85;1.90;;;;;;;28.80;62.92;100456.13;5196453;28;20017;-76
2022/08/04 05:22:40;;;;;;;5.22;2.03;;;;;;;27.46;66.82;100454.13;5203539;28;20406;-75
2022/08/04 05:25:22;;;;;;;5.15;2.00;;;;;;;27.58;67.05;100449.28;5201401;28;20033;-75
2022/08/04 05:28:08;;;;;;;3.10;2.00;;;;;;;28.73;66.02;100450.59;5203581;28;20053;-76
2022/08/04 05:30:51;;;;;;;2.83;1.75;;;;;;;30.31;61.45;100448.16;5199643;28;20499;-75
2022/08/04 05:33:26;;;;;;;2.75;1.67;;;;;;;32.01;58.11;100440.19;5208768;28;20479;-75
2022/08/04 05:35:59;;;;;;;3.28;1.58;;;;;;;31.72;57.67;100444.94;5204549;28;20514;-74
2022/08/04 05:38:36;;;;;;;4.88;1.65;;;;;;;32.30;57.11;100445.47;5204742;28;20456;-76
2022/08/04 05:41:09;;;;;;;4.20;2.00;;;;;;;32.86;55.54;100441.72;5199704;28;20037;-75
2022/08/04 05:43:42;;;;;;;5.68;1.98;;;;;;;31.50;58.62;100444.03;5203772;28;20387;-75
2022/08/04 05:46:15;;;;;;;4.53;2.20;;;;;;;29.45;62.90;100441.38;5203967;28;20495;-75
2022/08/04 05:48:47;;;;;;;4.65;2.10;;;;;;;30.94;59.85;100433.97;5204078;28;20033;-76
2022/08/04 05:51:18;;;;;;;4.55;2.15;;;;;;;30.89;58.62;100439.06;5203238;28;20029;-75
2022/08/04 05:53:50;;;;;;;2.90;1.88;;;;;;;30.99;59.97;100431.53;5204491;28;20029;-76
2022/08/04 05:56:21;;;;;;;6.78;2.10;;;;;;;30.57;62.03;100430.50;5204803;28;20246;-75
2022/08/04 05:58:53;;;;;;;3.88;1.77;;;;;;;30.68;59.42;100432.78;5204237;28;20410;-75
2022/08/04 06:01:25;;;;;;;3.25;1.90;;;;;;;30.56;59.43;100428.84;5199459;28;20033;-75
2022/08/04 06:03:58;;;;;;;5.88;1.77;;;;;;;30.07;60.27;100441.13;5207200;28;20499;-75
2022/08/04 06:06:30;;;;;;;5.30;1.80;;;;;;;31.27;56.52;100424.44;5202971;28;20032;-75
2022/08/04 06:09:00;;;;;;;3.70;1.98;;;;;;;30.94;58.98;100428.56;5201315;28;20017;-75
2022/08/04 06:11:33;;;;;;;3.50;1.80;;;;;;;31.30;57.54;100424.06;5200751;28;20024;-74
2022/08/04 06:14:07;;;;;;;3.53;1.90;;;;;;;30.68;59.45;100419.28;5202224;28;20032;-74
2022/08/04 06:16:41;;;;;;;3.58;1.75;;;;;;;29.65;62.93;100437.22;5197838;28;20078;-73
2022/08/04 06:19:13;;;;;;;6.53;2.05;;;;;;;31.03;58.20;100416.63;5201713;28;20028;-75
2022/08/04 06:21:47;;;;;;;4.05;1.80;;;;;;;30.98;59.61;100421.75;5202599;28;20025;-75
2022/08/04 06:24:23;;;;;;;6.57;1.77;;;;;;;30.15;62.30;100427.59;5201344;28;20064;-75
2022/08/04 06:26:55;;;;;;;4.07;1.95;;;;;;;29.31;64.53;100424.13;5203293;28;20279;-75
2022/08/04 06:29:37;;;;;;;4.20;1.90;;;;;;;29.93;61.46;100420.31;5201286;28;20025;-75
2022/08/04 06:32:27;;;;;;;5.03;1.73;;;;;;;29.72;62.52;100422.03;5196812;28;20022;-75
2022/08/04 06:35:00;;;;;;;7.45;1.90;;;;;;;30.23;60.58;100422.09;5202394;28;20414;-76
2022/08/04 06:37:32;;;;;;;5.95;1.70;;;;;;;30.18;60.73;100415.56;5201381;28;20110;-74
2022/08/04 06:40:06;;;;;;;4.05;1.80;;;;;;;30.43;61.72;100425.09;5202452;28;20523;-75
2022/08/04 06:42:37;;;;;;;4.43;1.67;;;;;;;30.43;62.57;100412.44;5197874;28;20025;-76
2022/08/04 06:45:10;;;;;;;2.75;1.42;;;;;;;31.01;59.17;100412.47;5203639;28;20017;-76
2022/08/04 06:47:42;;;;;;;2.75;1.50;;;;;;;31.07;59.61;100414.41;5201347;28;20025;-76
2022/08/04 06:50:13;;;;;;;6.68;1.50;;;;;;;31.70;58.39;100409.97;5203663;28;20025;-76
2022/08/04 06:52:45;;;;;;;5.07;1.55;;;;;;;30.40;61.12;100412.00;5203616;28;20515;-76
2022/08/04 06:55:15;;;;;;;3.63;1.55;;;;;;;31.22;59.46;100405.25;5203992;28;20029;-75
2022/08/04 06:57:47;;;;;;;3.80;1.50;;;;;;;32.79;57.09;100400.22;5202803;28;20216;-76
2022/08/04 07:00:17;;;;;;;4.90;1.80;;;;;;;32.77;57.49;100415.00;5202096;28;20025;-76
2022/08/04 07:02:50;;;;;;;4.07;1.60;;;;;;;32.27;57.96;100402.59;5205264;28;20033;-75
2022/08/04 07:05:21;;;;;;;5.80;1.63;;;;;;;32.67;56.67;100398.22;5206251;28;20395;-76
2022/08/04 07:07:52;;;;;;;10.77;1.65;;;;;;;32.90;56.60;100396.91;5201990;28;20046;-76
2022/08/04 07:10:23;;;;;;;3.92;1.20;;;;;;;34.26;55.16;100393.69;5203266;28;20387;-76
2022/08/04 07:13:00;;;;;;;4.32;1.58;;;;;;;34.07;53.60;100398.06;5203374;28;20232;-77
2022/08/04 07:15:32;;;;;;;6.82;1.60;;;;;;;34.26;54.46;100393.69;5203699;28;20071;-76
2022/08/04 07:18:03;;;;;;;6.22;1.42;;;;;;;35.22;51.57;100387.16;5204097;28;20705;-76
2022/08/04 07:20:34;;;;;;;4.20;1.20;;;;;;;33.44;53.99;100390.47;5203731;28;20040;-76
2022/08/04 07:23:05;;;;;;;4.38;1.40;;;;;;;34.83;50.44;100391.09;5203714;28;20021;-76
2022/08/04 07:25:37;;;;;;;4.15;1.40;;;;;;;35.22;49.36;100379.00;5203458;28;20032;-76
2022/08/04 07:28:07;;;;;;;3.10;1.48;;;;;;;35.65;50.62;100385.44;5198771;28;20451;-75
2022/08/04 07:30:39;;;;;;;3.70;1.30;;;;;;;36.37;48.57;100377.53;5203563;28;20059;-75
2022/08/04 07:33:10;;;;;;;2.95;1.20;;;;;;;37.06;46.23;100378.03;5203186;28;20029;-76
2022/08/04 07:35:41;;;;;;;3.00;1.10;;;;;;;37.69;45.92;100374.59;5202888;28;20546;-76
2022/08/04 07:38:12;;;;;;;2.80;1.10;;;;;;;38.91;44.41;100364.38;5203296;28;20376;-76
2022/08/04 07:40:43;;;;;;;8.85;1.70;;;;;;;38.74;45.24;100374.41;5202495;28;20108;-75
2022/08/04 07:43:15;;;;;;;2.22;1.20;;;;;;;38.36;45.21;100365.06;5203809;28;20017;-76
2022/08/04 07:45:46;;;;;;;2.95;1.35;;;;;;;37.86;44.06;100369.25;5203245;28;20040;-74
2022/08/04 07:48:17;;;;;;;1.60;1.00;;;;;;;39.47;43.39;100368.00;5202756;28;20029;-76
2022/08/04 07:50:49;;;;;;;7.15;1.20;;;;;;;39.20;42.65;100362.53;5203568;28;20021;-76
2022/08/04 07:53:20;;;;;;;3.67;1.20;;;;;;;39.24;41.69;100364.53;5197005;28;20487;-76
2022/08/04 07:55:51;;;;;;;5.40;1.10;;;;;;;39.36;40.53;100366.13;5201597;28;20041;-77
2022/08/04 07:58:22;;;;;;;3.10;1.48;;;;;;;39.65;41.30;100362.31;5203370;28;20058;-76
2022/08/04 08:00:53;;;;;;;4.53;1.33;;;;;;;39.33;42.29;100362.22;5201452;28;20037;-76
2022/08/04 08:03:26;;;;;;;4.13;1.40;;;;;;;40.16;41.81;100359.34;5203242;28;20021;-76
2022/08/04 08:05:56;;;;;;;6.70;1.30;;;;;;;39.88;42.01;100356.66;5203187;28;20518;-76
2022/08/04 08:08:26;;;;;;;3.42;1.08;;;;;;;39.91;41.76;100352.59;5202320;28;20032;-75
2022/08/04 08:10:57;;;;;;;7.97;1.30;;;;;;;40.97;41.61;100348.44;5202392;28;20091;-76
2022/08/04 08:13:28;;;;;;;17.67;1.63;;;;;;;39.66;41.94;100341.22;5201237;28;20030;-76
2022/08/04 08:15:59;;;;;;;10.50;1.27;;;;;;;41.28;39.90;100341.38;5201449;28;20022;-76
2022/08/04 08:18:30;;;;;;;4.85;1.23;;;;;;;40.30;40.80;100338.72;5200946;28;20022;-76
2022/08/04 08:21:01;;;;;;;3.70;1.38;;;;;;;39.97;40.74;100335.16;5201088;28;20024;-76
2022/08/04 08:23:34;;;;;;;2.28;1.10;;;;;;;41.03;40.83;100333.69;5200845;28;20112;-76
2022/08/04 08:26:05;;;;;;;4.72;1.15;;;;;;;40.36;41.14;100331.41;5202450;28;20365;-75
2022/08/04 08:28:36;;;;;;;2.42;1.08;;;;;;;41.15;38.55;100337.09;5201677;28;20022;-76
2022/08/04 08:31:06;;;;;;;2.33;1.20;;;;;;;39.32;38.84;100328.53;5202917;28;20036;-76
2022/08/04 08:33:36;;;;;;;3.25;1.23;;;;;;;40.01;39.61;100331.69;5202128;28;20033;-75
2022/08/04 08:36:16;;;;;;;3.67;1.00;;;;;;;41.26;38.67;100321.56;5202128;28;20022;-75
2022/08/04 08:39:09;;;;;;;3.20;1.00;;;;;;;41.53;38.49;100328.72;5202310;28;20525;-76
2022/08/04 08:42:13;;;;;;;2.95;1.10;;;;;;;41.49;38.42;100327.59;5186435;28;20018;-76
2022/08/04 08:45:29;;;;;;;4.43;1.30;;;;;;;40.94;39.11;100324.22;5197355;28;20548;-76
2022/08/04 08:48:32;;;;;;;5.93;1.10;;;;;;;41.63;39.31;100315.91;5200696;28;20491;-76
2022/08/04 08:51:34;;;;;;;2.05;1.00;;;;;;;39.53;41.26;100320.44;5201946;28;20041;-77
2022/08/04 08:54:26;;;;;;;4.18;1.30;;;;;;;41.14;39.06;100318.97;5211035;28;20049;-76
2022/08/04 08:57:25;;;;;;;3.25;1.00;;;;;;;41.36;38.24;100322.53;5200205;28;20033;-76
2022/08/04 09:00:07;;;;;;;3.53;1.10;;;;;;;40.06;38.88;100320.00;5201712;28;20021;-76
2022/08/04 09:02:51;;;;;;;5.15;1.17;;;;;;;40.84;38.52;100309.53;5197235;28;20441;-76
2022/08/04 09:05:49;;;;;;;3.50;1.20;;;;;;;39.74;38.63;100321.66;5201315;28;20036;-76
2022/08/04 09:08:31;;;;;;;6.70;1.23;;;;;;;39.48;38.72;100316.78;5201084;28;20033;-77
2022/08/04 09:11:17;;;;;;;6.20;1.10;;;;;;;39.17;40.19;100316.47;5201062;28;20391;-76
2022/08/04 09:13:56;;;;;;;4.50;1.15;;;;;;;38.93;40.34;100315.75;5198360;28;20033;-76
2022/08/04 09:17:04;;;;;;;8.73;1.20;;;;;;;39.11;40.24;100312.00;5201648;28;20044;-76
2022/08/04 09:19:41;;;;;;;2.78;1.17;;;;;;;38.53;39.69;100311.31;5199590;28;20025;-75
2022/08/04 09:22:31;;;;;;;3.17;1.15;;;;;;;38.35;40.58;100309.59;5194460;28;20030;-74
2022/08/04 09:25:11;;;;;;;7.07;1.33;;;;;;;37.51;41.10;100308.31;5202026;28;20028;-76
2022/08/04 09:27:57;;;;;;;4.40;1.13;;;;;;;38.60;40.66;100306.56;5194104;28;20052;-75
2022/08/04 09:30:47;;;;;;;3.00;1.30;;;;;;;38.45;39.38;100298.06;5201006;28;20108;-75
2022/08/04 09:33:36;;;;;;;3.63;1.20;;;;;;;38.33;41.29;100299.97;5198695;28;20029;-76
2022/08/04 09:36:33;;;;;;;3.50;1.20;;;;;;;37.90;40.51;100302.25;5197382;28;20029;-75
2022/08/04 09:39:15;;;;;;;5.32;1.40;;;;;;;38.05;41.25;100295.22;5201931;28;20184;-75
2022/08/04 09:42:11;;;;;;;7.95;1.15;;;;;;;38.23;43.45;100292.34;5187908;28;20518;-75
2022/08/04 09:44:55;;;;;;;4.80;1.40;;;;;;;37.61;41.38;100300.41;5201552;28;20033;-76
2022/08/04 09:47:51;;;;;;;4.22;1.17;;;;;;;38.05;42.56;100292.50;5201222;28;20065;-75
2022/08/04 09:50:34;;;;;;;5.40;1.30;;;;;;;37.96;41.43;100285.75;5201567;28;20067;-75
2022/08/04 09:53:35;;;;;;;2.25;1.30;;;;;;;37.59;41.67;100283.44;5201122;28;20033;-76
2022/08/04 09:56:31;;;;;;;4.35;1.00;;;;;;;37.92;42.17;100287.25;5194797;28;20071;-76
2022/08/04 09:59:25;;;;;;;2.20;1.00;;;;;;;37.41;42.01;100283.50;5196466;28;20147;-76
2022/08/04 10:02:02;;;;;;;2.17;1.20;;;;;;;37.10;41.27;100283.75;5193677;28;20495;-76
2022/08/04 10:04:35;;;;;;;3.80;1.10;;;;;;;36.98;41.03;100274.69;5198831;28;20032;-74
2022/08/04 10:07:14;;;;;;;4.45;1.23;;;;;;;37.21;41.28;100272.88;5198359;28;20116;-75
2022/08/04 10:10:19;;;;;;;4.85;1.30;;;;;;;36.46;42.95;100274.53;5196549;28;20125;-75
2022/08/04 10:13:25;;;;;;;2.67;1.27;;;;;;;36.23;43.61;100272.50;5200885;28;20029;-76
2022/08/04 10:16:14;;;;;;;3.20;1.42;;;;;;;36.56;41.52;100272.97;5202071;28;20048;-76
2022/08/04 10:18:49;;;;;;;2.88;1.20;;;;;;;36.43;42.19;100264.06;5201817;28;20048;-76
2022/08/04 10:21:23;;;;;;;4.00;1.27;;;;;;;36.22;44.71;100261.81;5202914;28;20060;-75
2022/08/04 10:24:12;;;;;;;3.65;1.30;;;;;;;35.88;43.35;100256.94;5201194;28;20490;-75
2022/08/04 10:26:53;;;;;;;2.80;1.05;;;;;;;36.42;43.99;100262.41;5199111;28;20057;-73
2022/08/04 10:29:35;;;;;;;3.72;1.25;;;;;;;36.92;44.54;100256.53;5202725;28;20211;-75
2022/08/04 10:32:13;;;;;;;2.60;1.23;;;;;;;37.02;43.74;100251.38;5203175;28;20558;-76
2022/08/04 10:35:10;;;;;;;2.45;1.10;;;;;;;36.64;43.54;100250.84;5202959;28;20516;-75
2022/08/04 10:37:51;;;;;;;5.93;1.17;;;;;;;36.16;44.34;100249.94;5192290;28;20030;-75
2022/08/04 10:40:43;;;;;;;2.10;1.23;;;;;;;36.19;47.48;100260.41;5200249;28;20083;-75
2022/08/04 10:43:32;;;;;;;3.65;1.30;;;;;;;35.92;45.89;100242.66;5203047;28;20479;-76
2022/08/04 10:46:09;;;;;;;6.38;1.52;;;;;;;35.30;45.92;100242.78;5199159;28;20284;-75
2022/08/04 10:48:42;;;;;;;3.65;1.48;;;;;;;35.71;43.28;100234.91;5200377;28;20022;-75
2022/08/04 10:51:16;;;;;;;4.72;1.27;;;;;;;36.23;43.18;100234.38;5201448;28;20033;-76
2022/08/04 10:53:54;;;;;;;2.13;1.27;;;;;;;36.46;42.60;100229.03;5201483;28;20561;-75
2022/08/04 10:56:48;;;;;;;5.60;1.30;;;;;;;36.35;41.88;100231.72;5199471;28;20451;-75
2022/08/04 10:59:27;;;;;;;2.80;1.25;;;;;;;36.53;41.52;100229.81;5199691;28;20036;-76
2022/08/04 11:02:07;;;;;;;4.97;1.15;;;;;;;36.24;44.66;100230.59;5202052;28;20037;-76
2022/08/04 11:04:47;;;;;;;5.57;1.30;;;;;;;36.21;43.86;100231.06;5193307;28;20025;-75
2022/08/04 11:07:19;;;;;;;7.40;1.55;;;;;;;36.14;43.47;100229.47;5200153;28;20044;-75
2022/08/04 11:09:50;;;;;;;2.13;1.23;;;;;;;35.74;44.44;100223.59;5201551;28;20033;-74
2022/08/04 11:12:25;;;;;;;2.88;1.30;;;;;;;35.94;45.00;100221.47;5201492;28;20033;-75
2022/08/04 11:15:08;;;;;;;2.27;1.23;;;;;;;36.14;45.67;100218.56;5199215;28;20083;-76
2022/08/04 11:17:46;;;;;;;2.95;1.30;;;;;;;36.27;46.91;100221.97;5193272;28;20037;-75
2022/08/04 11:20:23;;;;;;;2.45;1.10;;;;;;;36.46;44.24;100212.69;5192973;28;20728;-75
2022/08/04 11:23:22;;;;;;;3.15;1.30;;;;;;;36.23;46.46;100215.31;5196627;28;20324;-75
2022/08/04 11:26:11;;;;;;;13.50;1.50;;;;;;;36.01;47.11;100221.41;5200101;28;20034;-75
2022/08/04 11:28:54;;;;;;;2.50;1.30;;;;;;;35.93;45.41;100225.25;5194680;28;20422;-75
2022/08/04 11:31:29;;;;;;;3.10;1.23;;;;;;;36.00;45.89;100226.00;5195999;28;20026;-75
2022/08/04 11:34:18;;;;;;;;;;;;;;;35.98;46.04;100221.88;5190710;28;20100;-75
2022/08/04 11:37:01;;;;;;;2.75;1.20;;;;;;;35.88;47.21;100211.50;5194389;28;19927;-75
2022/08/04 11:39:34;;;;;;;3.30;1.42;;;;;;;35.97;49.24;100220.19;5195973;28;20507;-75
2022/08/04 11:42:25;;;;;;;4.07;1.20;;;;;;;36.68;46.49;100210.34;5194963;28;20506;-75
2022/08/04 11:45:10;;;;;;;1.80;1.15;;;;;;;36.72;49.17;100209.66;5199983;28;20034;-76
2022/08/04 11:47:48;;;;;;;4.85;1.25;;;;;;;36.27;47.28;100223.88;5196074;28;20155;-74
2022/08/04 11:50:40;;;;;;;1.52;0.93;;;;;;;36.18;45.94;100220.63;5196928;28;20045;-76
2022/08/04 11:53:18;;;;;;;1.10;1.00;;;;;;;36.26;44.76;100220.28;5201467;28;20041;-74
2022/08/04 11:55:51;;;;;;;2.85;1.25;;;;;;;36.04;44.43;100223.66;5200850;28;20411;-75
2022/08/04 11:58:23;;;;;;;1.40;0.93;;;;;;;35.92;45.93;100218.16;5187363;28;20050;-76
2022/08/04 12:01:18;;;;;;;3.38;1.30;;;;;;;35.91;45.02;100219.22;5199992;28;20083;-75
2022/08/04 12:04:10;;;;;;;3.53;1.20;;;;;;;35.91;46.54;100223.81;5195545;28;20084;-75
2022/08/04 12:06:54;;;;;;;3.78;1.30;;;;;;;35.82;45.88;100222.47;5193471;28;20022;-75
2022/08/04 12:10:10;;;;;;;2.38;1.30;;;;;;;35.76;44.98;100218.75;5194751;28;20041;-75
2022/08/04 12:12:53;;;;;;;4.93;0.90;;;;;;;35.65;45.31;100227.63;5173774;28;20351;-76
2022/08/04 12:15:43;;;;;;;1.77;1.00;;;;;;;35.73;45.02;100234.69;5200742;28;20040;-75
2022/08/04 12:18:37;;;;;;;2.95;0.98;;;;;;;35.73;44.47;100219.19;5193175;28;20021;-75
2022/08/04 12:21:13;;;;;;;1.70;1.20;;;;;;;35.93;43.71;100222.53;5195170;28;20524;-75
2022/08/04 12:23:46;;;;;;;3.38;1.20;;;;;;;35.77;45.25;100223.13;5200342;28;20116;-75
2022/08/04 12:26:22;;;;;;;2.03;1.00;;;;;;;35.83;45.48;100215.94;5200367;28;20117;-76
2022/08/04 12:28:58;;;;;;;2.83;1.15;;;;;;;35.77;43.29;100216.88;5195978;28;20029;-75